x

South Michigan - 43nm East Southeast Of Milwaukee, Wi (45007) Wave Buoy

1:50pm - Fri 28th Nov 2014 All times are CST. -6 hours from GMT.

  • Sig Wave height 4.6ft
  • Swell Direction
  • Peak Period 5s
  • Average Period 5s
  • Wind
    25mph, 31mph gusts
  • Sea Temp 42°f
  • Air Temp 31°f
  • Sea Pressure 1018.1mb
  • South Michigan - 43nm East Southeast Of Milwaukee, Wi
  • South Michigan - 43nm East Southeast Of Milwaukee, Wi

More Historic Weather Station data

Upgrade to MSW Pro to gain access to the past 30 days of data for over 8000 Wavebouys and Weather Stations around the globe.

Join Pro

Comparision Forecast

View Surf forecast
   
Fri 11/28 1:50pm 4.5ft 5s 5s 25 31 mph 1018.1mb 42f 31f
12:50pm 4.5ft 5s 4s 22 27 mph 1019.6mb 42f 29f
11:50am 4ft 5s 4s 22 29 mph 1021.4mb 42f 29f
10:50am 3ft 4s 4s 20 25 mph 1023.1mb 42f 28f
9:50am 2ft 4s 3s 18 22 mph 1024.3mb 42f 28f
8:50am 1.6ft 3s 3s 18 20 mph 1025.1mb 42f 26f
7:50am 1.6ft 6s 3s 13 22 mph 1025.9mb 42f 26f
6:50am 1.3ft 6s 4s 13 18 mph 1026.1mb 42f 26f
5:50am 1.6ft 6s 4s 7 11 mph 1027mb 42f 24f
4:50am 2ft 6s 4s 9 11 mph 1028.2mb 42f 24f
3:50am 2ft 6s 4s 13 18 mph 1028.9mb 42f 24f
2:50am 2.5ft 6s 5s 7 11 mph 1028.8mb 42f 24f
1:50am 2.5ft 6s 5s 4 9 mph 1028.7mb 42f 23f
12:50am 2.5ft 7s 5s 7 11 mph 1028.9mb 42f 23f
Thu 11/27 11:50pm 3.5ft 7s 5s 4 11 mph 1029.2mb 42f 23f
10:50pm 3.5ft 7s 5s 7 11 mph 1029.3mb 42f 23f
9:50pm 4ft 6s 5s 9 13 mph 1029.6mb 42f 23f
8:50pm 4.5ft 7s 5s 11 16 mph 1029.5mb 42f 23f
7:50pm 5ft 7s 5s 18 22 mph 1029.5mb 42f 24f
6:50pm 5ft 7s 5s 16 20 mph 1029.5mb 42f 24f
5:50pm 6ft 7s 5s 16 20 mph 1029.3mb 42f 25f
4:50pm 6ft 8s 5s 18 25 mph 1028.9mb 42f 25f
3:50pm  -   -   -  20 25 mph 1028.2mb 42f 26f
2:50pm 6ft 7s 5s 20 25 mph 1027.3mb 42f 26f
1:50pm 6.5ft 7s 5s 22 27 mph 1026.6mb 42f 27f
12:50pm 6.5ft 7s 5s 25 29 mph 1026.1mb 42f 28f
11:50am 6ft 6s 5s 27 34 mph 1025.8mb 42f 29f
10:50am 5ft 6s 5s 22 29 mph 1025.9mb 42f 30f
9:50am 5ft 6s 5s 25 29 mph 1025.4mb 42f 31f
8:50am 5ft 5s 5s 25 29 mph 1024.7mb 42f 31f
7:50am 4.5ft 6s 4s 22 27 mph 1024mb 42f 31f
6:50am 4.5ft 5s 4s 20 25 mph 1023.7mb 42f 31f
5:50am 4.5ft 5s 4s 20 22 mph 1023.5mb 42f 31f
4:50am 3.5ft 5s 4s 22 27 mph 1023mb 42f 32f
3:50am 4ft 5s 4s 20 25 mph 1022.8mb 42f 32f
2:50am 4ft 5s 4s 20 25 mph 1022.3mb 42f 32f
1:50am 4.5ft 6s 4s 20 25 mph 1022.3mb 42f 32f
12:50am 5ft 5s 4s 20 25 mph 1021.9mb 42f 32f
Wed 11/26 11:50pm 4.5ft 5s 4s 25 29 mph 1021.2mb 42f 33f
10:50pm 1.3ft 4s 3s 7 16 mph 1021.7mb 42f 32f
9:50pm 0.3ft  -  3s 2 4 mph 1021.7mb 42f 32f
8:50pm 0.7ft  -  3s 2 4 mph 1021.4mb 42f 32f
7:50pm 0.7ft  -  3s 2 4 mph 1021.1mb 42f 33f
6:50pm 0.7ft  -  3s 2 7 mph 1021mb 42f 33f
5:50pm 1ft 3s 3s 2 4 mph 1021.1mb 42f 32f
4:50pm 1ft 3s 3s 4 7 mph 1021mb 42f 32f
3:50pm 1ft 3s 3s 7 9 mph 1021.1mb 42f 32f
2:50pm 1ft 4s 3s 4 9 mph 1020.8mb 42f 31f
1:50pm 1ft 3s 3s 4 7 mph 1020.6mb 42f 31f
12:50pm 1.3ft 3s 3s 9 11 mph 1021mb 42f 30f
11:50am 1.3ft 3s 3s 11 13 mph 1021.1mb 42f 30f
10:50am 1.3ft 3s 3s 13 18 mph 1021.6mb 42f 31f
9:50am 1.3ft 3s 3s 11 16 mph 1021.8mb 42f 31f
8:50am 1ft 3s 3s 13 18 mph 1021.8mb 42f 31f
7:50am 1ft 3s 3s 7 9 mph 1021.8mb 42f 31f
6:50am 1ft 4s 3s 2 4 mph 1022.1mb 42f 29f
5:50am 1.3ft 3s 3s  -  2 mph 1021.7mb 42f 29f
4:50am 1.3ft 3s 3s  -  mph 1021.8mb 42f 28f
3:50am 1.3ft 3s 3s 7 11 mph 1022.5mb 42f 28f
2:50am 1.6ft 5s 4s 9 13 mph 1022.9mb 42f 28f
1:50am 1.6ft 3s 3s 11 16 mph 1022.9mb 42f 28f
12:50am 2ft 3s 4s 13 20 mph 1022.4mb 42f 29f
Tue 11/25 11:50pm 2ft 6s 4s 13 20 mph 1022.7mb 42f 28f
10:50pm 2ft 6s 4s 13 18 mph 1023mb 42f 28f
9:50pm 2.5ft 6s 4s 13 18 mph 1022.9mb 42f 28f
8:50pm 2.5ft 6s 4s 9 13 mph 1022.4mb 42f 28f
7:50pm 2.5ft 6s 4s 9 16 mph 1022.1mb 42f 28f
6:50pm 2.5ft 6s 4s 11 16 mph 1022mb 42f 29f
5:50pm 3ft 6s 4s 11 18 mph 1021.5mb 42f 29f
4:50pm 3ft 6s 4s 13 18 mph 1020.9mb 42f 29f
3:50pm 3.5ft 6s 4s 13 18 mph 1020.9mb 42f 29f
2:50pm 3.5ft 6s 4s 16 18 mph 1020.4mb 42f 28f
1:50pm 3.5ft 6s 4s 11 18 mph 1019.4mb 42f 28f
12:50pm 4ft 5s 5s 16 18 mph 1018.6mb 42f 28f
11:50am 4.5ft 5s 5s 13 18 mph 1018.3mb 42f 28f
10:50am 5ft 5s 5s 16 22 mph 1017.9mb 42f 28f
9:50am 4.5ft 5s 5s 20 25 mph 1017.1mb 42f 28f
8:50am 5ft 5s 5s 20 27 mph 1016mb 42f 28f
7:50am 6ft 5s 5s 22 27 mph 1014.9mb 42f 28f
6:50am 5ft 6s 5s 22 27 mph 1013.8mb 42f 28f
5:50am 5ft 5s 5s 20 25 mph 1012.8mb 42f 28f
4:50am 5ft 6s 5s 22 25 mph 1011.8mb 42f 28f
3:50am 6ft 6s 5s 25 27 mph 1010.5mb 42f 28f
2:50am 6ft 6s 5s 25 31 mph 1009.9mb 42f 28f
1:50am 6ft 6s 5s 27 34 mph 1009.2mb 42f 28f
12:50am 6.5ft 6s 5s 27 31 mph 1008.2mb 42f 29f
Mon 11/24 11:50pm  -   -   -  27
mph
- - 29f
10:50pm 8ft 7s 5s 29 34 mph 1006.4mb 42f 30f
9:50pm 8ft 7s 5s 29 36 mph 1005.2mb 42f 30f